createdAt,value
2022-10-23T00:01:26.289Z,38.50
2022-10-23T00:03:56.248Z,39.80
2022-10-23T00:06:25.310Z,40.30
2022-10-23T00:08:55.173Z,39.90
2022-10-23T00:11:26.089Z,40.80
2022-10-23T00:13:58.575Z,40.50
2022-10-23T00:16:26.689Z,39.30
2022-10-23T00:18:54.645Z,38.80
2022-10-23T00:21:23.184Z,38.20
2022-10-23T00:23:51.460Z,38.50
2022-10-23T00:26:21.247Z,38.30
2022-10-23T00:28:52.869Z,38.50
2022-10-23T00:31:22.382Z,38.30
2022-10-23T00:33:50.645Z,38.60
2022-10-23T00:36:20.637Z,38.50
2022-10-23T00:38:48.898Z,38.70
2022-10-23T00:41:21.099Z,38.90
2022-10-23T00:44:12.216Z,38.80
2022-10-23T00:46:40.911Z,39.10
2022-10-23T00:49:09.414Z,38.90
2022-10-23T00:51:41.773Z,38.90
2022-10-23T00:54:23.506Z,39.20
2022-10-23T00:56:57.655Z,39.40
2022-10-23T00:59:25.685Z,39.60
2022-10-23T01:01:53.778Z,39.80
2022-10-23T01:04:22.793Z,39.90
2022-10-23T01:07:00.721Z,39.80
2022-10-23T01:09:33.631Z,40.00
2022-10-23T01:12:11.841Z,40.10
2022-10-23T01:14:54.629Z,40.00
2022-10-23T01:17:31.788Z,40.20
2022-10-23T01:20:31.526Z,40.10
2022-10-23T01:23:20.417Z,39.70
2022-10-23T01:26:05.637Z,40.30
2022-10-23T01:28:42.057Z,40.40
2022-10-23T01:31:16.600Z,40.10
2022-10-23T01:33:50.189Z,40.40
2022-10-23T01:36:25.278Z,40.40
2022-10-23T01:38:58.372Z,40.40
2022-10-23T01:41:31.352Z,40.50
2022-10-23T01:44:07.988Z,40.90
2022-10-23T01:46:37.370Z,41.00
2022-10-23T01:49:09.029Z,40.70
2022-10-23T01:51:38.939Z,40.50
2022-10-23T01:54:11.478Z,41.10
2022-10-23T01:56:42.463Z,41.00
2022-10-23T01:59:17.481Z,40.80
2022-10-23T02:01:49.001Z,41.20
2022-10-23T02:04:22.856Z,41.10
2022-10-23T02:06:50.959Z,41.10
2022-10-23T02:09:18.908Z,42.10
2022-10-23T02:11:55.296Z,41.10
2022-10-23T02:14:37.744Z,41.10
2022-10-23T02:17:16.669Z,41.50
2022-10-23T02:19:51.179Z,41.20
2022-10-23T02:22:25.480Z,41.40
2022-10-23T02:24:58.693Z,41.80
2022-10-23T02:27:34.157Z,41.30
2022-10-23T02:30:07.465Z,42.10
2022-10-23T02:32:37.784Z,41.70
2022-10-23T02:35:07.205Z,42.20
2022-10-23T02:37:35.476Z,42.00
2022-10-23T02:40:04.857Z,42.10
2022-10-23T02:42:38.104Z,42.80
2022-10-23T02:45:13.127Z,42.40
2022-10-23T02:47:53.377Z,42.20
2022-10-23T02:50:30.386Z,42.20
2022-10-23T02:53:07.024Z,42.60
2022-10-23T02:55:46.397Z,42.70
2022-10-23T02:58:22.230Z,42.70
2022-10-23T03:00:56.358Z,42.30
2022-10-23T03:03:31.416Z,42.60
2022-10-23T03:05:59.500Z,42.40
2022-10-23T03:08:27.484Z,42.70
2022-10-23T03:10:55.488Z,42.50
2022-10-23T03:13:23.513Z,42.60
2022-10-23T03:15:52.811Z,42.80
2022-10-23T03:18:20.772Z,42.80
2022-10-23T03:20:48.736Z,42.90
2022-10-23T03:23:16.813Z,42.70
2022-10-23T03:25:44.764Z,42.70
2022-10-23T03:28:12.712Z,42.80
2022-10-23T03:30:40.705Z,43.20
2022-10-23T03:33:09.987Z,43.70
2022-10-23T03:35:38.032Z,44.00
2022-10-23T03:38:05.983Z,44.00
2022-10-23T03:40:34.049Z,44.10
2022-10-23T03:43:02.116Z,44.20
2022-10-23T03:45:30.800Z,44.40
2022-10-23T03:47:58.779Z,44.20
2022-10-23T03:50:28.207Z,44.60
2022-10-23T03:52:56.169Z,44.70
2022-10-23T03:55:25.621Z,44.40
2022-10-23T03:57:53.575Z,44.50
2022-10-23T04:00:22.646Z,44.70
2022-10-23T04:02:50.640Z,44.90
2022-10-23T04:05:18.832Z,44.80
2022-10-23T04:07:48.123Z,45.20
2022-10-23T04:10:16.072Z,45.20
2022-10-23T04:12:44.494Z,45.00
2022-10-23T04:15:12.763Z,45.10
2022-10-23T04:17:40.717Z,45.20
2022-10-23T04:20:09.566Z,45.60
2022-10-23T04:22:37.505Z,45.50
2022-10-23T04:25:07.400Z,45.50
2022-10-23T04:27:35.369Z,45.40
2022-10-23T04:30:04.023Z,45.70
2022-10-23T04:32:32.166Z,45.70
2022-10-23T04:35:00.177Z,45.70
2022-10-23T04:37:28.476Z,45.50
2022-10-23T04:39:56.415Z,45.60
2022-10-23T04:44:58.502Z,45.80
2022-10-23T04:47:26.444Z,45.90
2022-10-23T04:49:54.396Z,45.90
2022-10-23T04:52:22.660Z,45.90
2022-10-23T04:54:51.143Z,46.20
2022-10-23T04:57:19.089Z,45.80
2022-10-23T04:59:48.401Z,45.70
2022-10-23T05:02:16.693Z,45.90
2022-10-23T05:04:44.671Z,45.90
2022-10-23T05:07:12.634Z,45.70
2022-10-23T05:09:40.604Z,45.90
2022-10-23T05:12:09.283Z,46.20
2022-10-23T05:14:37.245Z,46.30
2022-10-23T05:17:13.689Z,45.90
2022-10-23T05:19:47.030Z,46.50
2022-10-23T05:22:16.179Z,45.90
2022-10-23T05:24:46.999Z,46.70
2022-10-23T05:27:18.269Z,46.50
2022-10-23T05:29:46.198Z,47.00
2022-10-23T05:32:17.338Z,47.10
2022-10-23T05:34:45.527Z,47.00
2022-10-23T05:37:15.580Z,46.60
2022-10-23T05:39:43.873Z,46.10
2022-10-23T05:42:11.885Z,47.80
2022-10-23T05:44:40.074Z,47.50
2022-10-23T05:47:08.542Z,47.90
2022-10-23T05:49:38.060Z,48.20
2022-10-23T05:52:06.276Z,47.90
2022-10-23T05:54:34.251Z,48.60
2022-10-23T05:57:02.174Z,48.60
2022-10-23T05:59:30.173Z,48.50
2022-10-23T06:01:58.273Z,48.30
2022-10-23T06:04:26.551Z,48.60
2022-10-23T06:06:56.024Z,48.00
2022-10-23T06:09:23.979Z,48.70
2022-10-23T06:11:51.981Z,48.60
2022-10-23T06:14:20.091Z,48.60
2022-10-23T06:16:48.132Z,48.90
2022-10-23T06:19:16.072Z,48.70
2022-10-23T06:21:44.055Z,47.80
2022-10-23T06:24:13.356Z,48.90
2022-10-23T06:26:41.374Z,48.10
2022-10-23T06:29:09.423Z,48.50
2022-10-23T06:31:37.413Z,48.50
2022-10-23T06:34:05.958Z,48.30
2022-10-23T06:36:33.974Z,47.50
2022-10-23T06:39:01.927Z,47.60
2022-10-23T06:41:31.231Z,48.50
2022-10-23T06:43:59.175Z,47.30
2022-10-23T06:46:29.755Z,48.30
2022-10-23T06:48:57.818Z,48.30
2022-10-23T06:51:29.550Z,48.00
2022-10-23T06:53:57.976Z,48.10
2022-10-23T06:56:29.043Z,48.30
2022-10-23T06:58:58.386Z,47.70
2022-10-23T07:01:26.567Z,48.00
2022-10-23T07:03:54.699Z,47.10
2022-10-23T07:06:22.698Z,47.30
2022-10-23T07:08:50.977Z,46.70
2022-10-23T07:11:19.472Z,46.70
2022-10-23T07:13:47.501Z,47.80
2022-10-23T07:16:18.989Z,46.90
2022-10-23T07:18:48.325Z,47.70
2022-10-23T07:21:16.874Z,47.70
2022-10-23T07:23:44.877Z,47.50
2022-10-23T07:26:16.660Z,47.10
2022-10-23T07:28:47.225Z,47.60
2022-10-23T07:31:16.513Z,47.40
2022-10-23T07:33:44.634Z,47.20
2022-10-23T07:36:12.621Z,47.30
2022-10-23T07:38:40.648Z,46.30
2022-10-23T07:41:11.630Z,47.00
2022-10-23T07:43:40.828Z,46.80
2022-10-23T07:46:09.746Z,47.60
2022-10-23T07:48:39.561Z,46.60
2022-10-23T07:51:12.316Z,46.70
2022-10-23T07:53:41.212Z,47.30
2022-10-23T07:56:15.731Z,46.70
2022-10-23T07:58:44.009Z,46.60
2022-10-23T08:01:20.645Z,46.60
2022-10-23T08:03:50.050Z,46.50
2022-10-23T08:06:18.076Z,46.70
2022-10-23T08:11:25.771Z,46.20
2022-10-23T08:13:54.428Z,46.30
2022-10-23T08:16:22.743Z,45.90
2022-10-23T08:18:52.658Z,46.00
2022-10-23T08:21:21.032Z,46.30
2022-10-23T08:23:49.156Z,46.00
2022-10-23T08:26:17.193Z,45.70
2022-10-23T08:28:45.183Z,45.50
2022-10-23T08:31:19.772Z,45.50
2022-10-23T08:36:24.844Z,40.60
2022-10-23T08:38:54.680Z,39.70
2022-10-23T08:41:28.793Z,41.10
2022-10-23T08:44:03.788Z,41.20
2022-10-23T08:46:35.707Z,40.90
2022-10-23T08:49:19.074Z,39.60
2022-10-23T08:51:53.356Z,40.10
2022-10-23T08:54:26.738Z,39.80
2022-10-23T08:57:01.399Z,39.60
2022-10-23T08:59:39.477Z,39.30
2022-10-23T09:02:17.821Z,39.00
2022-10-23T09:04:49.058Z,38.50
2022-10-23T09:07:29.558Z,38.30
2022-10-23T09:10:20.047Z,38.00
2022-10-23T09:12:48.215Z,38.00
2022-10-23T09:15:26.077Z,37.80
2022-10-23T09:18:01.219Z,37.70
2022-10-23T09:20:34.048Z,37.20
2022-10-23T09:23:19.878Z,37.20
2022-10-23T09:25:50.821Z,36.80
2022-10-23T09:28:23.772Z,36.80
2022-10-23T09:30:52.952Z,36.40
2022-10-23T09:33:23.603Z,36.60
2022-10-23T09:35:57.772Z,36.50
2022-10-23T09:38:33.004Z,36.50
2022-10-23T09:41:07.442Z,36.60
2022-10-23T09:43:35.660Z,36.60
2022-10-23T09:46:06.849Z,36.50
2022-10-23T09:48:35.479Z,36.60
2022-10-23T09:51:05.766Z,36.20
2022-10-23T09:53:39.882Z,36.30
2022-10-23T09:56:26.395Z,36.30
2022-10-23T09:58:57.824Z,35.40
2022-10-23T10:01:27.609Z,37.30
2022-10-23T10:03:56.754Z,36.10
2022-10-23T10:06:28.147Z,36.30
2022-10-23T10:08:59.738Z,36.40
2022-10-23T10:11:35.426Z,36.60
2022-10-23T10:14:32.115Z,36.90
2022-10-23T10:17:04.765Z,36.00
2022-10-23T10:19:48.891Z,37.40
2022-10-23T10:22:30.272Z,37.40
2022-10-23T10:25:08.125Z,37.30
2022-10-23T10:27:46.843Z,37.60
2022-10-23T10:30:17.800Z,37.60
2022-10-23T10:32:52.515Z,37.70
2022-10-23T10:35:41.078Z,38.50
2022-10-23T10:38:36.496Z,38.00
2022-10-23T10:41:26.109Z,37.40
2022-10-23T10:44:15.394Z,38.00
2022-10-23T10:46:51.331Z,37.70
2022-10-23T10:49:26.850Z,38.30
2022-10-23T10:52:05.512Z,38.30
2022-10-23T10:54:48.723Z,38.20
2022-10-23T10:57:32.292Z,37.80
2022-10-23T11:00:07.368Z,37.70
2022-10-23T11:02:41.643Z,37.50
2022-10-23T11:05:21.000Z,38.40
2022-10-23T11:07:56.759Z,38.30
2022-10-23T11:10:25.100Z,38.70
2022-10-23T11:12:54.650Z,37.80
2022-10-23T11:15:27.508Z,38.30
2022-10-23T11:17:59.654Z,38.50
2022-10-23T11:20:55.163Z,38.40
2022-10-23T11:24:23.517Z,38.50
2022-10-23T11:27:19.075Z,38.60
2022-10-23T11:30:09.537Z,38.10
2022-10-23T11:33:16.775Z,38.30
2022-10-23T11:35:55.606Z,38.30
2022-10-23T11:38:27.984Z,38.40
2022-10-23T11:41:00.746Z,38.40
2022-10-23T11:43:31.434Z,38.40
2022-10-23T11:46:13.434Z,38.30
2022-10-23T11:48:43.365Z,38.40
2022-10-23T11:51:29.888Z,37.90
2022-10-23T11:54:27.023Z,37.10
2022-10-23T11:57:12.052Z,37.40
2022-10-23T11:59:53.709Z,36.80
2022-10-23T12:02:31.915Z,37.50
2022-10-23T12:05:04.565Z,36.70
2022-10-23T12:07:36.965Z,36.50
2022-10-23T12:10:07.882Z,36.20
2022-10-23T12:12:40.703Z,37.00
2022-10-23T12:15:22.012Z,37.20
2022-10-23T12:17:53.991Z,37.30
2022-10-23T12:20:46.283Z,37.10
2022-10-23T12:23:38.149Z,37.00
2022-10-23T12:26:25.181Z,37.40
2022-10-23T12:29:05.894Z,37.10
2022-10-23T12:31:47.995Z,37.10
2022-10-23T12:34:35.722Z,37.10
2022-10-23T12:37:28.838Z,36.60
2022-10-23T12:39:58.902Z,37.20
2022-10-23T12:42:30.643Z,37.20
2022-10-23T12:45:00.510Z,37.30
2022-10-23T12:47:29.512Z,37.20
2022-10-23T12:49:58.817Z,37.40
2022-10-23T12:52:26.809Z,37.10
2022-10-23T12:54:54.721Z,37.20
2022-10-23T12:57:26.481Z,37.60
2022-10-23T12:59:59.132Z,37.50
2022-10-23T13:02:29.190Z,37.50
2022-10-23T13:05:02.389Z,37.50
2022-10-23T13:07:33.619Z,37.50
2022-10-23T13:10:02.635Z,37.70
2022-10-23T13:12:32.800Z,37.50
2022-10-23T13:15:13.980Z,37.60
2022-10-23T13:17:44.727Z,37.70
2022-10-23T13:20:26.220Z,37.90
2022-10-23T13:23:02.564Z,37.70
2022-10-23T13:25:33.888Z,37.30
2022-10-23T13:28:25.766Z,38.50
2022-10-23T13:31:04.454Z,38.00
2022-10-23T13:33:36.808Z,37.10
2022-10-23T13:36:21.802Z,38.00
2022-10-23T13:39:03.069Z,37.50
2022-10-23T13:41:39.513Z,38.10
2022-10-23T13:44:07.968Z,38.10
2022-10-23T13:46:35.995Z,37.90
2022-10-23T13:49:04.282Z,37.30
2022-10-23T13:51:42.471Z,37.20
2022-10-23T13:54:16.848Z,38.00
2022-10-23T13:56:45.010Z,38.20
2022-10-23T13:59:13.779Z,37.50
2022-10-23T14:01:43.215Z,38.20
2022-10-23T14:04:12.138Z,37.20
2022-10-23T14:06:42.066Z,38.00
2022-10-23T14:09:14.714Z,38.00
2022-10-23T14:11:43.233Z,38.20
2022-10-23T14:14:11.309Z,38.00
2022-10-23T14:16:39.257Z,38.10
2022-10-23T14:19:07.855Z,38.10
2022-10-23T14:21:35.836Z,37.90
2022-10-23T14:24:05.383Z,38.00
2022-10-23T14:26:34.217Z,37.50
2022-10-23T14:29:06.514Z,38.10
2022-10-23T14:31:38.192Z,38.20
2022-10-23T14:34:06.178Z,37.80
2022-10-23T14:36:43.338Z,38.70
2022-10-23T14:39:19.597Z,38.10
2022-10-23T14:41:47.731Z,38.10
2022-10-23T14:44:15.650Z,38.50
2022-10-23T14:46:43.631Z,39.10
2022-10-23T14:49:11.574Z,39.00
2022-10-23T14:51:39.572Z,38.60
2022-10-23T14:54:08.991Z,39.30
2022-10-23T14:56:40.661Z,38.80
2022-10-23T14:59:10.564Z,39.10
2022-10-23T15:01:45.090Z,39.00
2022-10-23T15:04:14.819Z,39.70
2022-10-23T15:06:43.836Z,38.80
2022-10-23T15:09:12.024Z,39.30
2022-10-23T15:11:41.363Z,39.30
2022-10-23T15:14:09.392Z,38.70
2022-10-23T15:16:41.376Z,38.80
2022-10-23T15:19:13.525Z,39.50
2022-10-23T15:21:45.456Z,39.20
2022-10-23T15:24:13.483Z,39.50
2022-10-23T15:26:43.290Z,39.40
2022-10-23T15:29:12.060Z,40.00
2022-10-23T15:31:49.143Z,40.10
2022-10-23T15:34:20.005Z,40.00
2022-10-23T15:36:48.767Z,40.00
2022-10-23T15:39:19.992Z,40.20
2022-10-23T15:41:52.550Z,39.50
2022-10-23T15:44:22.977Z,40.20
2022-10-23T15:46:51.873Z,40.30
2022-10-23T15:49:20.656Z,40.40
2022-10-23T15:51:48.786Z,40.20
2022-10-23T15:54:19.022Z,40.00
2022-10-23T15:56:50.677Z,40.20
2022-10-23T15:59:21.169Z,39.90
2022-10-23T16:01:49.802Z,39.60
2022-10-23T16:04:18.408Z,39.40
2022-10-23T16:06:47.064Z,40.00
2022-10-23T16:09:16.287Z,40.00
2022-10-23T16:11:44.991Z,40.10
2022-10-23T16:14:17.369Z,40.10
2022-10-23T16:16:45.414Z,40.20
2022-10-23T16:19:14.099Z,39.90
2022-10-23T16:21:43.121Z,40.00
2022-10-23T16:24:11.526Z,40.40
2022-10-23T16:26:40.005Z,40.70
2022-10-23T16:29:09.861Z,40.90
2022-10-23T16:31:39.201Z,40.70
2022-10-23T16:34:07.844Z,41.00
2022-10-23T16:36:38.831Z,40.80
2022-10-23T16:39:07.476Z,40.20
2022-10-23T16:41:35.711Z,41.00
2022-10-23T16:44:03.815Z,41.20
2022-10-23T16:46:32.164Z,40.90
2022-10-23T16:49:02.809Z,41.30
2022-10-23T16:51:31.444Z,42.10
2022-10-23T16:54:00.029Z,41.40
2022-10-23T16:56:29.789Z,41.70
2022-10-23T17:01:33.901Z,42.90
2022-10-23T17:04:03.349Z,41.50
2022-10-23T17:06:33.608Z,42.10
2022-10-23T17:09:02.810Z,42.20
2022-10-23T17:11:32.797Z,42.50
2022-10-23T17:14:04.144Z,42.60
2022-10-23T17:16:35.924Z,42.50
2022-10-23T17:19:21.015Z,43.00
2022-10-23T17:21:57.227Z,42.80
2022-10-23T17:24:25.320Z,42.80
2022-10-23T17:26:53.991Z,42.70
2022-10-23T17:29:22.849Z,42.80
2022-10-23T17:31:52.028Z,43.00
2022-10-23T17:34:24.227Z,43.00
2022-10-23T17:36:55.633Z,43.50
2022-10-23T17:39:26.342Z,43.40
2022-10-23T17:41:55.153Z,43.60
2022-10-23T17:44:23.459Z,43.10
2022-10-23T17:46:53.725Z,43.20
2022-10-23T17:49:24.079Z,43.30
2022-10-23T17:51:55.682Z,44.00
2022-10-23T17:54:25.299Z,44.00
2022-10-23T17:56:53.286Z,43.90
2022-10-23T17:59:21.281Z,44.00
2022-10-23T18:01:49.990Z,43.90
2022-10-23T18:04:20.379Z,43.60
2022-10-23T18:06:52.567Z,44.00
2022-10-23T18:09:21.561Z,43.30
2022-10-23T18:11:50.655Z,44.20
2022-10-23T18:14:21.024Z,43.80
2022-10-23T18:16:50.145Z,44.60
2022-10-23T18:19:19.190Z,44.20
2022-10-23T18:21:49.169Z,43.80
2022-10-23T18:24:18.219Z,44.30
2022-10-23T18:26:47.805Z,43.80
2022-10-23T18:29:17.308Z,44.30
2022-10-23T18:31:47.885Z,44.40
2022-10-23T18:34:18.745Z,44.20
2022-10-23T18:36:47.243Z,44.00
2022-10-23T18:39:22.025Z,44.40
2022-10-23T18:41:54.225Z,44.40
2022-10-23T18:44:24.168Z,44.40
2022-10-23T18:46:52.819Z,44.40
2022-10-23T18:49:21.553Z,44.60
2022-10-23T18:51:50.656Z,44.90
2022-10-23T18:54:22.492Z,44.70
2022-10-23T18:56:50.598Z,44.80
2022-10-23T18:59:20.746Z,44.50
2022-10-23T19:01:49.382Z,44.70
2022-10-23T19:04:17.802Z,44.80
2022-10-23T19:06:46.636Z,45.10
2022-10-23T19:09:15.245Z,45.00
2022-10-23T19:11:45.430Z,45.30
2022-10-23T19:14:13.566Z,45.60
2022-10-23T19:16:46.148Z,46.40
2022-10-23T19:19:18.787Z,46.00
2022-10-23T19:21:47.605Z,46.30
2022-10-23T19:24:19.160Z,46.50
2022-10-23T19:26:49.260Z,45.90
2022-10-23T19:29:21.758Z,46.00
2022-10-23T19:31:50.565Z,46.20
2022-10-23T19:34:20.321Z,46.70
2022-10-23T19:36:49.267Z,46.70
2022-10-23T19:39:17.663Z,46.90
2022-10-23T19:41:47.785Z,47.80
2022-10-23T19:44:16.167Z,47.30
2022-10-23T19:46:44.404Z,47.70
2022-10-23T19:49:12.568Z,47.60
2022-10-23T19:51:40.838Z,48.00
2022-10-23T19:54:10.448Z,48.00
2022-10-23T19:56:38.816Z,49.50
2022-10-23T19:59:08.558Z,48.70
2022-10-23T20:01:36.554Z,48.80
2022-10-23T20:04:04.637Z,49.30
2022-10-23T20:06:35.388Z,49.70
2022-10-23T20:09:04.813Z,49.60
2022-10-23T20:11:33.056Z,50.00
2022-10-23T20:14:01.025Z,51.10
2022-10-23T20:16:33.824Z,50.90
2022-10-23T20:19:06.411Z,51.10
2022-10-23T20:21:37.217Z,51.30
2022-10-23T20:24:05.883Z,51.80
2022-10-23T20:26:34.495Z,52.30
2022-10-23T20:29:02.523Z,52.20
2022-10-23T20:31:31.988Z,52.20
2022-10-23T20:34:00.865Z,52.60
2022-10-23T20:36:31.117Z,52.80
2022-10-23T20:39:01.891Z,53.20
2022-10-23T20:41:32.917Z,53.40
2022-10-23T20:44:01.682Z,53.50
2022-10-23T20:46:31.017Z,54.00
2022-10-23T20:48:59.236Z,54.00
2022-10-23T20:51:27.831Z,53.50
2022-10-23T20:53:55.932Z,53.90
2022-10-23T20:56:30.108Z,54.10
2022-10-23T20:58:58.529Z,53.70
2022-10-23T21:01:26.912Z,54.10
2022-10-23T21:03:58.662Z,53.50
2022-10-23T21:06:37.093Z,53.50
2022-10-23T21:09:13.821Z,53.20
2022-10-23T21:11:41.881Z,54.00
2022-10-23T21:14:09.825Z,53.30
2022-10-23T21:16:40.673Z,53.00
2022-10-23T21:19:12.640Z,53.20
2022-10-23T21:21:41.013Z,52.80
2022-10-23T21:24:13.949Z,52.80
2022-10-23T21:26:42.184Z,52.50
2022-10-23T21:29:18.561Z,52.70
2022-10-23T21:31:53.793Z,52.40
2022-10-23T21:34:23.143Z,52.40
2022-10-23T21:37:11.889Z,52.30
2022-10-23T21:39:39.154Z,52.20
2022-10-23T21:42:07.492Z,52.20
2022-10-23T21:44:35.469Z,51.70
2022-10-23T21:47:03.460Z,52.30
2022-10-23T21:49:33.131Z,51.70
2022-10-23T21:52:01.142Z,51.50
2022-10-23T21:54:29.140Z,51.40
2022-10-23T21:56:57.111Z,51.20
2022-10-23T21:59:30.095Z,51.30
2022-10-23T22:02:00.333Z,51.30
2022-10-23T22:04:28.456Z,50.80
2022-10-23T22:06:57.851Z,51.20
2022-10-23T22:09:25.872Z,50.80
2022-10-23T22:11:55.267Z,50.50
2022-10-23T22:14:24.504Z,50.20
2022-10-23T22:16:52.477Z,50.60
2022-10-23T22:19:22.751Z,50.70
2022-10-23T22:21:51.650Z,50.10
2022-10-23T22:24:21.449Z,50.10
2022-10-23T22:26:52.085Z,50.40
2022-10-23T22:29:24.053Z,50.30
2022-10-23T22:31:53.046Z,50.40
2022-10-23T22:37:12.583Z,50.00
2022-10-23T22:39:42.168Z,50.00
2022-10-23T22:42:10.258Z,49.50
2022-10-23T22:44:38.264Z,50.00
2022-10-23T22:47:07.196Z,49.90
2022-10-23T22:49:35.337Z,50.20
2022-10-23T22:52:03.410Z,49.30
2022-10-23T22:54:31.670Z,49.60
2022-10-23T22:57:01.096Z,49.80
2022-10-23T22:59:29.236Z,49.70
2022-10-23T23:01:57.485Z,49.80
2022-10-23T23:04:37.358Z,49.90
2022-10-23T23:07:06.606Z,49.10
2022-10-23T23:09:38.487Z,49.70
2022-10-23T23:12:09.879Z,49.40
2022-10-23T23:14:38.373Z,49.50
2022-10-23T23:17:07.664Z,49.70
2022-10-23T23:19:35.871Z,48.70
2022-10-23T23:22:04.672Z,49.70
2022-10-23T23:24:33.008Z,49.60
2022-10-23T23:27:00.964Z,49.40
2022-10-23T23:29:30.541Z,49.30
2022-10-23T23:31:58.548Z,49.30
2022-10-23T23:34:26.724Z,49.30
2022-10-23T23:36:54.664Z,49.30
2022-10-23T23:39:22.598Z,49.10
2022-10-23T23:41:50.624Z,49.20
2022-10-23T23:44:18.601Z,49.20
2022-10-23T23:46:48.004Z,48.80
2022-10-23T23:49:15.979Z,48.70
2022-10-23T23:51:43.978Z,48.70
2022-10-23T23:54:11.960Z,48.00
2022-10-23T23:56:39.931Z,49.20
2022-10-23T23:59:07.923Z,48.90
